d'avertissement pour Orages more information blitzortung!


Autres sites météorologiques:

MétéotemplateWebsite of another weatherstation

Saratoga.org


Vous trouverez notre info météo également à:

European Weather Network

WeatherCloud

Weather Underground

French Weather Network

AWEKAS

HAMweather, WeatherForYou, PWS Weather



Orages Valable du: 11-08-2020 15:02 Au: 12-08-2020 15:00 Avertissement pour: Orages Niveau: Jaune info button
français:
Des phénomènes habituels dans la région mais occasionnellement et localement dangereux sont prévus , (ex. mistral, orage d’été, montée des eaux, fortes vagues submergeant le littoral)

Soyez attentifs; si vous pratiquez des activités sensibles au risque météorologique ou à proximité d'un rivage ou d'un cours d'eau; tenez-vous au courant de l’évolution de la situation.

Rapports METAR proches


Warning: A non-numeric value encountered in /home/jacot04/public_html/weather28/metar/metarDisplay.php on line 166
   
EHVK - Volkel Rnlafb, Netherlands
Distance de la station :: SO 18 km
Mise à jour: 11-08-2020 23:25
Orage, Couvert  
Orage, Couvert  
   Vent: NE 5.6 km/h
Vent: NE 5.6 km/h
Température: 24°C
Point de rosée: 18°C
Hygromètrie: 69%
Pression: 1015 hPa
Nuageux: Couvert
visibilité: More than 10 km
Détails des nuages: Peu nuageux 2500 ft,
Couvert 13000 ft
EHVK 112125Z AUTO 04003KT 350V080 9999 TS FEW025CB OVC130 24/18 Q1015 BLU
EDLV - Niederrhein, Germany
Distance de la station :: SE 25 km
Mise à jour: 11-08-2020 23:20
Clair  
Clair  
   Vent: SSE 14.8 km/h
Vent: SSE 14.8 km/h
Température: 25°C
Point de rosée: 18°C
Hygromètrie: 65%
Pression: 1015 hPa
visibilité: More than 10 km
Détails des nuages: Clair
EDLV 112120Z 15008KT CAVOK 25/18 Q1015
EHDL - Deelen Rnlafb, Netherlands
Distance de la station :: N 35 km
Mise à jour: 11-08-2020 23:25
Nuageux  
Nuageux  
   Vent: ESE 11.1 km/h
Vent: ESE 11.1 km/h
Température: 28°C
Index de chaleur: 29°C
Point de rosée: 18°C
Hygromètrie: 55%
Pression: 1015 hPa
Nuageux: Nuageux
visibilité: More than 10 km
Détails des nuages: Peu nuageux 3900 ft,
Partiellement nuageux 7600 ft,
Nuageux 8200 ft,
Nuageux 8800 ft
EHDL 112125Z AUTO 11006KT 030V170 9999 FEW039CB SCT076 BKN082 BKN088 28/18 Q1015 BLU
EHEH - Eindhoven Rnlafb, Netherlands
Distance de la station :: SO 48 km
Mise à jour: 11-08-2020 23:25
Brouillard, Couvert  
Brouillard, Couvert  
   Vent: variable 3.7 km/h
Vent: variable 3.7 km/h
Température: 23°C
Point de rosée: 22°C
Hygromètrie: 94%
Pression: 1014 hPa
Nuageux: Couvert
visibilité: 4 km
Détails des nuages: Couvert 14000 ft
EHEH 112125Z AUTO VRB02KT 3900 BR OVC140 23/22 Q1014 GRN
EHGR - Gilze-Rijen Rnla, Netherlands
Distance de la station :: OSO 70 km
Mise à jour: 11-08-2020 23:25
Pluie faible, Couvert  
Pluie faible, Couvert  
   Vent: NO 5.6 km/h
Vent: NO 5.6 km/h
Température: 22°C
Point de rosée: 21°C
Hygromètrie: 94%
Pression: 1014 hPa
Nuageux: Couvert
visibilité: 3 km
Détails des nuages: Peu nuageux 100 ft,
Partiellement nuageux 500 ft,
Peu nuageux 1500 ft,
Couvert 11300 ft
EHGR 112125Z AUTO 31003KT 210V290 2900 -RA FEW001 SCT005 FEW015CB OVC113 22/21 Q1014 YLO
EBBL - Kleine-Brogel(Ba, Belgium
Distance de la station :: SSO 71 km
Mise à jour: 11-08-2020 22:55
Nuageux  
Nuageux  
   Vent: variable 3.7 km/h
Vent: variable 3.7 km/h
Température: 23°C
Point de rosée: 20°C
Hygromètrie: 83%
Pression: 1015 hPa
Nuageux: Nuageux
visibilité: More than 10 km
Détails des nuages: Partiellement nuageux 8500 ft,
Nuageux 13000 ft
EBBL 112055Z AUTO VRB02KT 9999 SCT085/// BKN130/// 23/20 Q1015 BLU

Script d'après  Saratoga-weather.org Adapté pour le modèle par  Weerstation Leuven